sensor_id;sensor_type;location;lat;lon;timestamp;temperature;humidity
78475;SHT31;67766;51.964;5.660;2023-05-08T00:02:05;19.8;64.4
78475;SHT31;67766;51.964;5.660;2023-05-08T00:04:35;19.8;64.5
78475;SHT31;67766;51.964;5.660;2023-05-08T00:07:05;19.8;64.6
78475;SHT31;67766;51.964;5.660;2023-05-08T00:09:35;19.8;64.6
78475;SHT31;67766;51.964;5.660;2023-05-08T00:12:04;19.8;64.5
78475;SHT31;67766;51.964;5.660;2023-05-08T00:14:34;19.7;64.7
78475;SHT31;67766;51.964;5.660;2023-05-08T00:17:06;19.7;64.7
78475;SHT31;67766;51.964;5.660;2023-05-08T00:19:35;19.7;64.8
78475;SHT31;67766;51.964;5.660;2023-05-08T00:22:05;19.7;64.8
78475;SHT31;67766;51.964;5.660;2023-05-08T00:24:37;19.6;64.8
78475;SHT31;67766;51.964;5.660;2023-05-08T00:27:08;19.6;64.9
78475;SHT31;67766;51.964;5.660;2023-05-08T00:29:38;19.6;65.0
78475;SHT31;67766;51.964;5.660;2023-05-08T00:32:08;19.6;65.0
78475;SHT31;67766;51.964;5.660;2023-05-08T00:34:38;19.6;64.9
78475;SHT31;67766;51.964;5.660;2023-05-08T00:37:07;19.6;65.0
78475;SHT31;67766;51.964;5.660;2023-05-08T00:39:37;19.6;65.0
78475;SHT31;67766;51.964;5.660;2023-05-08T00:42:07;19.5;65.1
78475;SHT31;67766;51.964;5.660;2023-05-08T00:44:36;19.5;65.0
78475;SHT31;67766;51.964;5.660;2023-05-08T00:47:07;19.5;64.9
78475;SHT31;67766;51.964;5.660;2023-05-08T00:49:37;19.5;64.8
78475;SHT31;67766;51.964;5.660;2023-05-08T00:52:08;19.5;65.0
78475;SHT31;67766;51.964;5.660;2023-05-08T00:54:39;19.4;65.0
78475;SHT31;67766;51.964;5.660;2023-05-08T00:57:11;19.4;65.1
78475;SHT31;67766;51.964;5.660;2023-05-08T00:59:42;19.4;65.2
78475;SHT31;67766;51.964;5.660;2023-05-08T01:02:13;19.4;65.1
78475;SHT31;67766;51.964;5.660;2023-05-08T01:04:47;19.3;65.1
78475;SHT31;67766;51.964;5.660;2023-05-08T01:07:16;19.3;65.1
78475;SHT31;67766;51.964;5.660;2023-05-08T01:09:47;19.3;65.1
78475;SHT31;67766;51.964;5.660;2023-05-08T01:12:22;19.3;65.0
78475;SHT31;67766;51.964;5.660;2023-05-08T01:15:02;19.3;65.0
78475;SHT31;67766;51.964;5.660;2023-05-08T01:17:45;19.3;65.0
78475;SHT31;67766;51.964;5.660;2023-05-08T01:20:34;19.3;65.0
78475;SHT31;67766;51.964;5.660;2023-05-08T01:23:23;19.3;65.0
78475;SHT31;67766;51.964;5.660;2023-05-08T01:26:19;19.3;64.9
78475;SHT31;67766;51.964;5.660;2023-05-08T01:29:12;19.3;64.9
78475;SHT31;67766;51.964;5.660;2023-05-08T01:32:03;19.2;64.8
78475;SHT31;67766;51.964;5.660;2023-05-08T01:34:38;19.2;64.8
78475;SHT31;67766;51.964;5.660;2023-05-08T01:37:14;19.2;64.8
78475;SHT31;67766;51.964;5.660;2023-05-08T01:39:56;19.2;64.8
78475;SHT31;67766;51.964;5.660;2023-05-08T01:42:37;19.2;64.8
78475;SHT31;67766;51.964;5.660;2023-05-08T01:45:12;19.2;64.7
78475;SHT31;67766;51.964;5.660;2023-05-08T01:47:52;19.1;64.8
78475;SHT31;67766;51.964;5.660;2023-05-08T01:50:32;19.1;64.8
78475;SHT31;67766;51.964;5.660;2023-05-08T01:53:08;19.1;64.6
78475;SHT31;67766;51.964;5.660;2023-05-08T01:55:41;19.1;64.6
78475;SHT31;67766;51.964;5.660;2023-05-08T01:58:12;19.1;64.5
78475;SHT31;67766;51.964;5.660;2023-05-08T02:00:44;19.1;64.5
78475;SHT31;67766;51.964;5.660;2023-05-08T02:03:16;19.1;64.5
78475;SHT31;67766;51.964;5.660;2023-05-08T02:05:49;19.0;64.5
78475;SHT31;67766;51.964;5.660;2023-05-08T02:08:21;19.0;64.6
78475;SHT31;67766;51.964;5.660;2023-05-08T02:10:55;19.0;64.7
78475;SHT31;67766;51.964;5.660;2023-05-08T02:13:26;19.0;64.9
78475;SHT31;67766;51.964;5.660;2023-05-08T02:15:58;19.0;64.9
78475;SHT31;67766;51.964;5.660;2023-05-08T02:18:31;19.0;64.8
78475;SHT31;67766;51.964;5.660;2023-05-08T02:21:03;19.0;64.8
78475;SHT31;67766;51.964;5.660;2023-05-08T02:23:33;18.9;64.8
78475;SHT31;67766;51.964;5.660;2023-05-08T02:26:04;18.9;64.6
78475;SHT31;67766;51.964;5.660;2023-05-08T02:28:35;18.9;64.6
78475;SHT31;67766;51.964;5.660;2023-05-08T02:31:07;18.9;64.4
78475;SHT31;67766;51.964;5.660;2023-05-08T02:33:40;18.8;64.5
78475;SHT31;67766;51.964;5.660;2023-05-08T02:36:14;18.8;64.6
78475;SHT31;67766;51.964;5.660;2023-05-08T02:38:46;18.8;64.8
78475;SHT31;67766;51.964;5.660;2023-05-08T02:41:20;18.7;65.1
78475;SHT31;67766;51.964;5.660;2023-05-08T02:43:51;18.7;65.3
78475;SHT31;67766;51.964;5.660;2023-05-08T02:46:28;18.7;65.2
78475;SHT31;67766;51.964;5.660;2023-05-08T02:49:06;18.7;65.3
78475;SHT31;67766;51.964;5.660;2023-05-08T02:51:48;18.7;65.2
78475;SHT31;67766;51.964;5.660;2023-05-08T02:54:24;18.7;65.2
78475;SHT31;67766;51.964;5.660;2023-05-08T02:57:00;18.7;65.3
78475;SHT31;67766;51.964;5.660;2023-05-08T02:59:36;18.7;65.5
78475;SHT31;67766;51.964;5.660;2023-05-08T03:02:11;18.7;65.3
78475;SHT31;67766;51.964;5.660;2023-05-08T03:04:48;18.7;65.4
78475;SHT31;67766;51.964;5.660;2023-05-08T03:07:22;18.7;65.5
78475;SHT31;67766;51.964;5.660;2023-05-08T03:09:57;18.7;65.6
78475;SHT31;67766;51.964;5.660;2023-05-08T03:12:30;18.7;65.5
78475;SHT31;67766;51.964;5.660;2023-05-08T03:15:05;18.7;65.2
78475;SHT31;67766;51.964;5.660;2023-05-08T03:17:38;18.7;64.7
78475;SHT31;67766;51.964;5.660;2023-05-08T03:20:15;18.7;64.4
78475;SHT31;67766;51.964;5.660;2023-05-08T03:22:46;18.7;64.2
78475;SHT31;67766;51.964;5.660;2023-05-08T03:25:17;18.7;64.2
78475;SHT31;67766;51.964;5.660;2023-05-08T03:27:49;18.7;64.1
78475;SHT31;67766;51.964;5.660;2023-05-08T03:30:20;18.7;64.0
78475;SHT31;67766;51.964;5.660;2023-05-08T03:32:52;18.7;64.0
78475;SHT31;67766;51.964;5.660;2023-05-08T03:35:26;18.7;64.0
78475;SHT31;67766;51.964;5.660;2023-05-08T03:37:57;18.7;64.0
78475;SHT31;67766;51.964;5.660;2023-05-08T03:40:27;18.7;64.0
78475;SHT31;67766;51.964;5.660;2023-05-08T03:42:57;18.7;64.1
78475;SHT31;67766;51.964;5.660;2023-05-08T03:45:32;18.6;64.1
78475;SHT31;67766;51.964;5.660;2023-05-08T03:48:03;18.6;64.1
78475;SHT31;67766;51.964;5.660;2023-05-08T03:50:35;18.6;64.1
78475;SHT31;67766;51.964;5.660;2023-05-08T03:53:05;18.6;64.1
78475;SHT31;67766;51.964;5.660;2023-05-08T03:55:35;18.6;64.2
78475;SHT31;67766;51.964;5.660;2023-05-08T03:58:12;18.6;64.2
78475;SHT31;67766;51.964;5.660;2023-05-08T04:00:56;18.5;64.1
78475;SHT31;67766;51.964;5.660;2023-05-08T04:03:42;18.5;64.3
78475;SHT31;67766;51.964;5.660;2023-05-08T04:06:24;18.5;64.3
78475;SHT31;67766;51.964;5.660;2023-05-08T04:09:03;18.5;64.6
78475;SHT31;67766;51.964;5.660;2023-05-08T04:11:43;18.5;64.5
78475;SHT31;67766;51.964;5.660;2023-05-08T04:14:21;18.5;63.9
78475;SHT31;67766;51.964;5.660;2023-05-08T04:17:04;18.4;63.7
78475;SHT31;67766;51.964;5.660;2023-05-08T04:19:37;18.4;63.7
78475;SHT31;67766;51.964;5.660;2023-05-08T04:22:09;18.4;63.8
78475;SHT31;67766;51.964;5.660;2023-05-08T04:24:43;18.4;64.0
78475;SHT31;67766;51.964;5.660;2023-05-08T04:27:15;18.4;64.2
78475;SHT31;67766;51.964;5.660;2023-05-08T04:29:45;18.3;64.5
78475;SHT31;67766;51.964;5.660;2023-05-08T04:32:15;18.3;64.4
78475;SHT31;67766;51.964;5.660;2023-05-08T04:34:45;18.3;64.0
78475;SHT31;67766;51.964;5.660;2023-05-08T04:37:27;18.3;63.7
78475;SHT31;67766;51.964;5.660;2023-05-08T04:39:58;18.3;63.7
78475;SHT31;67766;51.964;5.660;2023-05-08T04:42:28;18.3;63.8
78475;SHT31;67766;51.964;5.660;2023-05-08T04:44:59;18.3;64.0
78475;SHT31;67766;51.964;5.660;2023-05-08T04:47:29;18.3;63.9
78475;SHT31;67766;51.964;5.660;2023-05-08T04:50:01;18.3;63.7
78475;SHT31;67766;51.964;5.660;2023-05-08T04:52:30;18.2;64.2
78475;SHT31;67766;51.964;5.660;2023-05-08T04:55:00;18.2;63.8
78475;SHT31;67766;51.964;5.660;2023-05-08T04:57:29;18.2;63.7
78475;SHT31;67766;51.964;5.660;2023-05-08T04:59:59;18.2;63.9
78475;SHT31;67766;51.964;5.660;2023-05-08T05:02:28;18.2;63.8
78475;SHT31;67766;51.964;5.660;2023-05-08T05:04:58;18.2;63.9
78475;SHT31;67766;51.964;5.660;2023-05-08T05:07:27;18.2;64.0
78475;SHT31;67766;51.964;5.660;2023-05-08T05:09:58;18.2;63.8
78475;SHT31;67766;51.964;5.660;2023-05-08T05:12:28;18.3;64.1
78475;SHT31;67766;51.964;5.660;2023-05-08T05:14:57;18.3;64.0
78475;SHT31;67766;51.964;5.660;2023-05-08T05:17:29;18.3;63.9
78475;SHT31;67766;51.964;5.660;2023-05-08T05:19:59;18.3;64.0
78475;SHT31;67766;51.964;5.660;2023-05-08T05:22:31;18.3;64.1
78475;SHT31;67766;51.964;5.660;2023-05-08T05:25:01;18.4;64.2
78475;SHT31;67766;51.964;5.660;2023-05-08T05:27:33;18.4;63.8
78475;SHT31;67766;51.964;5.660;2023-05-08T05:30:03;18.4;63.8
78475;SHT31;67766;51.964;5.660;2023-05-08T05:32:34;18.5;63.3
78475;SHT31;67766;51.964;5.660;2023-05-08T05:35:04;18.5;63.4
78475;SHT31;67766;51.964;5.660;2023-05-08T05:37:34;18.5;63.5
78475;SHT31;67766;51.964;5.660;2023-05-08T05:40:04;18.5;64.0
78475;SHT31;67766;51.964;5.660;2023-05-08T05:42:34;18.5;63.7
78475;SHT31;67766;51.964;5.660;2023-05-08T05:45:04;18.5;64.2
78475;SHT31;67766;51.964;5.660;2023-05-08T05:47:34;18.6;64.2
78475;SHT31;67766;51.964;5.660;2023-05-08T05:50:04;18.6;63.3
78475;SHT31;67766;51.964;5.660;2023-05-08T05:52:34;18.7;62.5
78475;SHT31;67766;51.964;5.660;2023-05-08T05:55:05;18.7;62.9
78475;SHT31;67766;51.964;5.660;2023-05-08T05:57:34;18.7;62.7
78475;SHT31;67766;51.964;5.660;2023-05-08T06:00:05;18.8;62.0
78475;SHT31;67766;51.964;5.660;2023-05-08T06:02:36;18.8;62.5
78475;SHT31;67766;51.964;5.660;2023-05-08T06:05:08;18.8;62.7
78475;SHT31;67766;51.964;5.660;2023-05-08T06:07:38;18.8;63.4
78475;SHT31;67766;51.964;5.660;2023-05-08T06:10:11;18.8;63.1
78475;SHT31;67766;51.964;5.660;2023-05-08T06:12:40;18.9;63.0
78475;SHT31;67766;51.964;5.660;2023-05-08T06:15:10;18.9;62.2
78475;SHT31;67766;51.964;5.660;2023-05-08T06:17:41;18.9;62.4
78475;SHT31;67766;51.964;5.660;2023-05-08T06:20:11;18.9;61.8
78475;SHT31;67766;51.964;5.660;2023-05-08T06:22:41;19.0;62.1
78475;SHT31;67766;51.964;5.660;2023-05-08T06:25:13;19.0;62.5
78475;SHT31;67766;51.964;5.660;2023-05-08T06:27:44;19.0;62.3
78475;SHT31;67766;51.964;5.660;2023-05-08T06:30:14;19.0;62.1
78475;SHT31;67766;51.964;5.660;2023-05-08T06:32:43;19.1;62.7
78475;SHT31;67766;51.964;5.660;2023-05-08T06:35:13;19.1;63.5
78475;SHT31;67766;51.964;5.660;2023-05-08T06:37:45;19.2;62.8
78475;SHT31;67766;51.964;5.660;2023-05-08T06:40:15;19.4;62.4
78475;SHT31;67766;51.964;5.660;2023-05-08T06:42:45;19.5;62.4
78475;SHT31;67766;51.964;5.660;2023-05-08T06:45:15;19.6;61.9
78475;SHT31;67766;51.964;5.660;2023-05-08T06:47:44;19.7;62.0
78475;SHT31;67766;51.964;5.660;2023-05-08T06:50:14;19.8;62.1
78475;SHT31;67766;51.964;5.660;2023-05-08T06:52:43;19.9;62.0
78475;SHT31;67766;51.964;5.660;2023-05-08T06:55:13;20.0;61.7
78475;SHT31;67766;51.964;5.660;2023-05-08T06:57:43;20.0;61.7
78475;SHT31;67766;51.964;5.660;2023-05-08T07:00:13;20.1;61.0
78475;SHT31;67766;51.964;5.660;2023-05-08T07:02:43;20.2;61.3
78475;SHT31;67766;51.964;5.660;2023-05-08T07:05:12;20.3;61.3
78475;SHT31;67766;51.964;5.660;2023-05-08T07:07:42;20.3;61.4
78475;SHT31;67766;51.964;5.660;2023-05-08T07:10:12;20.4;60.7
78475;SHT31;67766;51.964;5.660;2023-05-08T07:12:43;20.5;60.3
78475;SHT31;67766;51.964;5.660;2023-05-08T07:15:15;20.6;60.9
78475;SHT31;67766;51.964;5.660;2023-05-08T07:17:44;20.7;60.0
78475;SHT31;67766;51.964;5.660;2023-05-08T07:20:14;20.7;59.9
78475;SHT31;67766;51.964;5.660;2023-05-08T07:22:44;20.8;60.0
78475;SHT31;67766;51.964;5.660;2023-05-08T07:25:15;20.9;59.8
78475;SHT31;67766;51.964;5.660;2023-05-08T07:27:44;21.0;59.9
78475;SHT31;67766;51.964;5.660;2023-05-08T07:30:14;21.0;59.6
78475;SHT31;67766;51.964;5.660;2023-05-08T07:32:44;21.1;59.7
78475;SHT31;67766;51.964;5.660;2023-05-08T07:35:14;21.2;59.6
78475;SHT31;67766;51.964;5.660;2023-05-08T07:37:46;21.2;59.4
78475;SHT31;67766;51.964;5.660;2023-05-08T07:40:16;21.3;59.1
78475;SHT31;67766;51.964;5.660;2023-05-08T07:42:46;21.3;59.5
78475;SHT31;67766;51.964;5.660;2023-05-08T07:45:15;21.3;59.5
78475;SHT31;67766;51.964;5.660;2023-05-08T07:47:53;21.4;59.4
78475;SHT31;67766;51.964;5.660;2023-05-08T07:50:24;21.4;58.3
78475;SHT31;67766;51.964;5.660;2023-05-08T07:52:54;21.4;58.7
78475;SHT31;67766;51.964;5.660;2023-05-08T07:55:24;21.5;58.8
78475;SHT31;67766;51.964;5.660;2023-05-08T07:57:53;21.5;59.0
78475;SHT31;67766;51.964;5.660;2023-05-08T08:00:24;21.5;58.7
78475;SHT31;67766;51.964;5.660;2023-05-08T08:02:58;21.6;58.7
78475;SHT31;67766;51.964;5.660;2023-05-08T08:05:27;21.6;58.4
78475;SHT31;67766;51.964;5.660;2023-05-08T08:07:57;21.6;58.4
78475;SHT31;67766;51.964;5.660;2023-05-08T08:10:26;21.6;58.6
78475;SHT31;67766;51.964;5.660;2023-05-08T08:12:59;21.6;58.4
78475;SHT31;67766;51.964;5.660;2023-05-08T08:15:32;21.7;58.2
78475;SHT31;67766;51.964;5.660;2023-05-08T08:18:01;21.7;58.4
78475;SHT31;67766;51.964;5.660;2023-05-08T08:20:31;21.7;58.6
78475;SHT31;67766;51.964;5.660;2023-05-08T08:23:01;21.7;58.4
78475;SHT31;67766;51.964;5.660;2023-05-08T08:25:30;21.7;58.6
78475;SHT31;67766;51.964;5.660;2023-05-08T08:28:00;21.8;58.2
78475;SHT31;67766;51.964;5.660;2023-05-08T08:30:30;21.8;58.2
78475;SHT31;67766;51.964;5.660;2023-05-08T08:32:59;21.8;58.4
78475;SHT31;67766;51.964;5.660;2023-05-08T08:35:29;21.8;57.7
78475;SHT31;67766;51.964;5.660;2023-05-08T08:38:00;21.8;58.4
78475;SHT31;67766;51.964;5.660;2023-05-08T08:40:30;21.9;58.4
78475;SHT31;67766;51.964;5.660;2023-05-08T08:43:00;21.9;58.4
78475;SHT31;67766;51.964;5.660;2023-05-08T08:45:29;22.0;58.6
78475;SHT31;67766;51.964;5.660;2023-05-08T08:48:01;22.1;58.8
78475;SHT31;67766;51.964;5.660;2023-05-08T08:50:32;22.2;58.1
78475;SHT31;67766;51.964;5.660;2023-05-08T08:53:08;22.4;58.4
78475;SHT31;67766;51.964;5.660;2023-05-08T08:55:44;22.5;58.4
78475;SHT31;67766;51.964;5.660;2023-05-08T08:58:20;22.7;57.5
78475;SHT31;67766;51.964;5.660;2023-05-08T09:00:51;22.8;57.3
78475;SHT31;67766;51.964;5.660;2023-05-08T09:03:22;22.9;56.4
78475;SHT31;67766;51.964;5.660;2023-05-08T09:05:52;23.0;56.1
78475;SHT31;67766;51.964;5.660;2023-05-08T09:08:24;23.1;55.6
78475;SHT31;67766;51.964;5.660;2023-05-08T09:10:55;23.1;55.3
78475;SHT31;67766;51.964;5.660;2023-05-08T09:13:24;23.2;55.2
78475;SHT31;67766;51.964;5.660;2023-05-08T09:15:54;23.2;55.2
78475;SHT31;67766;51.964;5.660;2023-05-08T09:18:25;23.3;55.8
78475;SHT31;67766;51.964;5.660;2023-05-08T09:20:56;23.3;55.3
78475;SHT31;67766;51.964;5.660;2023-05-08T09:23:28;23.4;55.3
78475;SHT31;67766;51.964;5.660;2023-05-08T09:25:58;23.5;55.5
78475;SHT31;67766;51.964;5.660;2023-05-08T09:28:28;23.5;54.9
78475;SHT31;67766;51.964;5.660;2023-05-08T09:30:58;23.5;55.0
78475;SHT31;67766;51.964;5.660;2023-05-08T09:33:29;23.6;55.1
78475;SHT31;67766;51.964;5.660;2023-05-08T09:35:59;23.6;54.4
78475;SHT31;67766;51.964;5.660;2023-05-08T09:38:37;23.5;55.0
78475;SHT31;67766;51.964;5.660;2023-05-08T09:41:10;23.5;55.3
78475;SHT31;67766;51.964;5.660;2023-05-08T09:43:43;23.5;55.5
78475;SHT31;67766;51.964;5.660;2023-05-08T09:46:24;23.5;55.2
78475;SHT31;67766;51.964;5.660;2023-05-08T09:48:55;23.5;54.5
78475;SHT31;67766;51.964;5.660;2023-05-08T09:51:27;23.5;54.3
78475;SHT31;67766;51.964;5.660;2023-05-08T09:53:59;23.5;54.4
78475;SHT31;67766;51.964;5.660;2023-05-08T09:56:37;23.4;55.6
78475;SHT31;67766;51.964;5.660;2023-05-08T09:59:24;23.4;55.6
78475;SHT31;67766;51.964;5.660;2023-05-08T10:01:55;23.5;55.6
78475;SHT31;67766;51.964;5.660;2023-05-08T10:04:35;23.5;55.0
78475;SHT31;67766;51.964;5.660;2023-05-08T10:07:08;23.6;55.0
78475;SHT31;67766;51.964;5.660;2023-05-08T10:09:37;23.7;54.3
78475;SHT31;67766;51.964;5.660;2023-05-08T10:12:07;23.7;54.2
78475;SHT31;67766;51.964;5.660;2023-05-08T10:14:37;23.8;53.4
78475;SHT31;67766;51.964;5.660;2023-05-08T10:17:09;23.8;53.7
78475;SHT31;67766;51.964;5.660;2023-05-08T10:19:44;23.8;53.9
78475;SHT31;67766;51.964;5.660;2023-05-08T10:22:17;23.8;53.5
78475;SHT31;67766;51.964;5.660;2023-05-08T10:24:49;23.8;53.4
78475;SHT31;67766;51.964;5.660;2023-05-08T10:27:29;23.8;53.9
78475;SHT31;67766;51.964;5.660;2023-05-08T10:30:01;23.8;53.8
78475;SHT31;67766;51.964;5.660;2023-05-08T10:32:37;23.9;53.1
78475;SHT31;67766;51.964;5.660;2023-05-08T10:35:11;23.9;52.9
78475;SHT31;67766;51.964;5.660;2023-05-08T10:37:42;24.0;51.5
78475;SHT31;67766;51.964;5.660;2023-05-08T10:40:14;24.0;51.4
78475;SHT31;67766;51.964;5.660;2023-05-08T10:42:46;24.0;51.7
78475;SHT31;67766;51.964;5.660;2023-05-08T10:45:16;24.0;52.2
78475;SHT31;67766;51.964;5.660;2023-05-08T10:47:57;24.0;52.2
78475;SHT31;67766;51.964;5.660;2023-05-08T10:50:37;24.0;52.5
78475;SHT31;67766;51.964;5.660;2023-05-08T10:53:14;24.1;53.5
78475;SHT31;67766;51.964;5.660;2023-05-08T10:55:49;24.2;53.3
78475;SHT31;67766;51.964;5.660;2023-05-08T10:58:30;24.3;52.3
78475;SHT31;67766;51.964;5.660;2023-05-08T11:01:14;24.5;52.7
78475;SHT31;67766;51.964;5.660;2023-05-08T11:03:45;24.6;52.7
78475;SHT31;67766;51.964;5.660;2023-05-08T11:06:18;24.7;51.3
78475;SHT31;67766;51.964;5.660;2023-05-08T11:08:52;24.8;51.1
78475;SHT31;67766;51.964;5.660;2023-05-08T11:11:27;24.8;51.9
78475;SHT31;67766;51.964;5.660;2023-05-08T11:14:13;24.9;51.6
78475;SHT31;67766;51.964;5.660;2023-05-08T11:17:05;24.9;52.0
78475;SHT31;67766;51.964;5.660;2023-05-08T11:19:36;25.0;52.6
78475;SHT31;67766;51.964;5.660;2023-05-08T11:22:14;25.0;52.7
78475;SHT31;67766;51.964;5.660;2023-05-08T11:24:53;25.2;51.3
78475;SHT31;67766;51.964;5.660;2023-05-08T11:27:40;25.3;50.8
78475;SHT31;67766;51.964;5.660;2023-05-08T11:30:22;25.4;51.3
78475;SHT31;67766;51.964;5.660;2023-05-08T11:35:09;25.5;50.6
78475;SHT31;67766;51.964;5.660;2023-05-08T11:38:11;25.7;48.8
78475;SHT31;67766;51.964;5.660;2023-05-08T11:40:46;25.7;49.3
78475;SHT31;67766;51.964;5.660;2023-05-08T11:43:23;25.8;49.2
78475;SHT31;67766;51.964;5.660;2023-05-08T11:45:59;25.8;48.0
78475;SHT31;67766;51.964;5.660;2023-05-08T11:48:31;25.9;48.0
78475;SHT31;67766;51.964;5.660;2023-05-08T11:51:02;25.9;47.2
78475;SHT31;67766;51.964;5.660;2023-05-08T11:53:34;25.9;48.5
78475;SHT31;67766;51.964;5.660;2023-05-08T11:56:06;26.0;48.2
78475;SHT31;67766;51.964;5.660;2023-05-08T11:58:37;26.0;46.9
78475;SHT31;67766;51.964;5.660;2023-05-08T12:01:08;26.0;47.7
78475;SHT31;67766;51.964;5.660;2023-05-08T12:03:38;26.0;48.3
78475;SHT31;67766;51.964;5.660;2023-05-08T12:06:08;26.0;47.9
78475;SHT31;67766;51.964;5.660;2023-05-08T12:08:38;26.0;46.9
78475;SHT31;67766;51.964;5.660;2023-05-08T12:11:08;26.1;47.8
78475;SHT31;67766;51.964;5.660;2023-05-08T12:13:37;26.1;47.5
78475;SHT31;67766;51.964;5.660;2023-05-08T12:16:10;26.1;47.4
78475;SHT31;67766;51.964;5.660;2023-05-08T12:18:39;26.1;47.4
78475;SHT31;67766;51.964;5.660;2023-05-08T12:21:10;26.1;47.8
78475;SHT31;67766;51.964;5.660;2023-05-08T12:23:41;26.1;47.7
78475;SHT31;67766;51.964;5.660;2023-05-08T12:26:11;26.1;47.5
78475;SHT31;67766;51.964;5.660;2023-05-08T12:28:43;26.1;47.2
78475;SHT31;67766;51.964;5.660;2023-05-08T12:31:13;26.1;47.2
78475;SHT31;67766;51.964;5.660;2023-05-08T12:33:43;26.1;47.2
78475;SHT31;67766;51.964;5.660;2023-05-08T12:36:13;26.0;47.1
78475;SHT31;67766;51.964;5.660;2023-05-08T12:38:42;26.0;47.2
78475;SHT31;67766;51.964;5.660;2023-05-08T12:41:12;25.9;47.7
78475;SHT31;67766;51.964;5.660;2023-05-08T12:43:45;25.9;47.4
78475;SHT31;67766;51.964;5.660;2023-05-08T12:46:16;25.8;47.3
78475;SHT31;67766;51.964;5.660;2023-05-08T12:48:46;25.8;47.0
78475;SHT31;67766;51.964;5.660;2023-05-08T12:51:18;25.7;47.6
78475;SHT31;67766;51.964;5.660;2023-05-08T12:53:49;25.7;46.4
78475;SHT31;67766;51.964;5.660;2023-05-08T12:56:21;25.6;46.7
78475;SHT31;67766;51.964;5.660;2023-05-08T12:58:50;25.5;46.7
78475;SHT31;67766;51.964;5.660;2023-05-08T13:01:22;25.4;46.9
78475;SHT31;67766;51.964;5.660;2023-05-08T13:03:55;25.3;47.5
78475;SHT31;67766;51.964;5.660;2023-05-08T13:06:24;25.2;47.2
78475;SHT31;67766;51.964;5.660;2023-05-08T13:08:54;25.1;47.7
78475;SHT31;67766;51.964;5.660;2023-05-08T13:11:31;25.1;48.7
78475;SHT31;67766;51.964;5.660;2023-05-08T13:14:03;25.1;49.0
78475;SHT31;67766;51.964;5.660;2023-05-08T13:16:42;25.1;48.6
78475;SHT31;67766;51.964;5.660;2023-05-08T13:19:13;25.2;49.0
78475;SHT31;67766;51.964;5.660;2023-05-08T13:21:44;25.2;50.0
78475;SHT31;67766;51.964;5.660;2023-05-08T13:24:14;25.3;48.9
78475;SHT31;67766;51.964;5.660;2023-05-08T13:26:44;25.4;47.4
78475;SHT31;67766;51.964;5.660;2023-05-08T13:29:14;25.4;46.9
78475;SHT31;67766;51.964;5.660;2023-05-08T13:31:44;25.4;45.4
78475;SHT31;67766;51.964;5.660;2023-05-08T13:34:13;25.4;46.0
78475;SHT31;67766;51.964;5.660;2023-05-08T13:36:43;25.4;47.3
78475;SHT31;67766;51.964;5.660;2023-05-08T13:39:15;25.4;45.7
78475;SHT31;67766;51.964;5.660;2023-05-08T13:41:44;25.4;46.2
78475;SHT31;67766;51.964;5.660;2023-05-08T13:44:14;25.5;46.3
78475;SHT31;67766;51.964;5.660;2023-05-08T13:46:43;25.5;46.9
78475;SHT31;67766;51.964;5.660;2023-05-08T13:49:13;25.5;47.4
78475;SHT31;67766;51.964;5.660;2023-05-08T13:51:44;25.5;47.9
78475;SHT31;67766;51.964;5.660;2023-05-08T13:54:14;25.5;46.6
78475;SHT31;67766;51.964;5.660;2023-05-08T13:56:43;25.5;46.1
78475;SHT31;67766;51.964;5.660;2023-05-08T13:59:14;25.6;45.3
78475;SHT31;67766;51.964;5.660;2023-05-08T14:01:44;25.6;45.0
78475;SHT31;67766;51.964;5.660;2023-05-08T14:04:13;25.6;44.9
78475;SHT31;67766;51.964;5.660;2023-05-08T14:06:43;25.6;45.2
78475;SHT31;67766;51.964;5.660;2023-05-08T14:09:13;25.6;45.6
78475;SHT31;67766;51.964;5.660;2023-05-08T14:11:43;25.6;46.0
78475;SHT31;67766;51.964;5.660;2023-05-08T14:14:14;25.6;46.8
78475;SHT31;67766;51.964;5.660;2023-05-08T14:16:44;25.6;45.0
78475;SHT31;67766;51.964;5.660;2023-05-08T14:19:13;25.7;44.7
78475;SHT31;67766;51.964;5.660;2023-05-08T14:21:43;25.7;44.9
78475;SHT31;67766;51.964;5.660;2023-05-08T14:24:13;25.7;45.6
78475;SHT31;67766;51.964;5.660;2023-05-08T14:26:43;25.7;45.4
78475;SHT31;67766;51.964;5.660;2023-05-08T14:29:12;25.8;45.1
78475;SHT31;67766;51.964;5.660;2023-05-08T14:31:42;25.7;45.1
78475;SHT31;67766;51.964;5.660;2023-05-08T14:34:12;25.7;45.1
78475;SHT31;67766;51.964;5.660;2023-05-08T14:36:42;25.7;45.2
78475;SHT31;67766;51.964;5.660;2023-05-08T14:39:11;25.7;45.0
78475;SHT31;67766;51.964;5.660;2023-05-08T14:41:41;25.6;44.6
78475;SHT31;67766;51.964;5.660;2023-05-08T14:44:10;25.6;44.2
78475;SHT31;67766;51.964;5.660;2023-05-08T14:46:42;25.5;44.9
78475;SHT31;67766;51.964;5.660;2023-05-08T14:49:12;25.5;45.0
78475;SHT31;67766;51.964;5.660;2023-05-08T14:51:43;25.5;44.8
78475;SHT31;67766;51.964;5.660;2023-05-08T14:54:16;25.5;45.8
78475;SHT31;67766;51.964;5.660;2023-05-08T14:56:45;25.4;46.7
78475;SHT31;67766;51.964;5.660;2023-05-08T14:59:17;25.4;45.4
78475;SHT31;67766;51.964;5.660;2023-05-08T15:01:46;25.4;46.4
78475;SHT31;67766;51.964;5.660;2023-05-08T15:04:16;25.4;46.6
78475;SHT31;67766;51.964;5.660;2023-05-08T15:06:46;25.4;46.4
78475;SHT31;67766;51.964;5.660;2023-05-08T15:09:15;25.4;47.2
78475;SHT31;67766;51.964;5.660;2023-05-08T15:11:45;25.5;47.2
78475;SHT31;67766;51.964;5.660;2023-05-08T15:14:15;25.5;46.4
78475;SHT31;67766;51.964;5.660;2023-05-08T15:16:44;25.5;46.3
78475;SHT31;67766;51.964;5.660;2023-05-08T15:19:14;25.5;46.7
78475;SHT31;67766;51.964;5.660;2023-05-08T15:21:44;25.5;46.2
78475;SHT31;67766;51.964;5.660;2023-05-08T15:24:13;25.5;46.9
78475;SHT31;67766;51.964;5.660;2023-05-08T15:26:43;25.5;46.1
78475;SHT31;67766;51.964;5.660;2023-05-08T15:29:13;25.5;46.4
78475;SHT31;67766;51.964;5.660;2023-05-08T15:31:42;25.5;47.1
78475;SHT31;67766;51.964;5.660;2023-05-08T15:34:12;25.6;47.5
78475;SHT31;67766;51.964;5.660;2023-05-08T15:36:42;25.6;46.2
78475;SHT31;67766;51.964;5.660;2023-05-08T15:39:12;25.6;46.2
78475;SHT31;67766;51.964;5.660;2023-05-08T15:41:41;25.6;46.2
78475;SHT31;67766;51.964;5.660;2023-05-08T15:44:11;25.6;46.6
78475;SHT31;67766;51.964;5.660;2023-05-08T15:46:41;25.6;47.0
78475;SHT31;67766;51.964;5.660;2023-05-08T15:49:11;25.7;46.8
78475;SHT31;67766;51.964;5.660;2023-05-08T15:51:40;25.7;47.2
78475;SHT31;67766;51.964;5.660;2023-05-08T15:54:10;25.7;47.8
78475;SHT31;67766;51.964;5.660;2023-05-08T15:56:39;25.7;48.2
78475;SHT31;67766;51.964;5.660;2023-05-08T15:59:09;25.8;48.0
78475;SHT31;67766;51.964;5.660;2023-05-08T16:01:39;25.8;48.6
78475;SHT31;67766;51.964;5.660;2023-05-08T16:04:09;25.8;49.1
78475;SHT31;67766;51.964;5.660;2023-05-08T16:06:38;25.9;48.9
78475;SHT31;67766;51.964;5.660;2023-05-08T16:09:08;25.9;48.2
78475;SHT31;67766;51.964;5.660;2023-05-08T16:11:37;26.0;48.5
78475;SHT31;67766;51.964;5.660;2023-05-08T16:14:07;26.0;48.3
78475;SHT31;67766;51.964;5.660;2023-05-08T16:16:37;26.0;48.9
78475;SHT31;67766;51.964;5.660;2023-05-08T16:19:07;26.1;48.0
78475;SHT31;67766;51.964;5.660;2023-05-08T16:21:37;26.1;48.1
78475;SHT31;67766;51.964;5.660;2023-05-08T16:24:07;26.1;48.0
78475;SHT31;67766;51.964;5.660;2023-05-08T16:26:37;26.2;48.1
78475;SHT31;67766;51.964;5.660;2023-05-08T16:29:06;26.2;48.1
78475;SHT31;67766;51.964;5.660;2023-05-08T16:31:36;26.2;48.0
78475;SHT31;67766;51.964;5.660;2023-05-08T16:34:06;26.2;47.7
78475;SHT31;67766;51.964;5.660;2023-05-08T16:36:35;26.2;47.7